Eagle Turin — 9VMG6 — position and weather

sailwx.info

Track history (hours):
 
Tides and Currents Weather Stations Pressure Air Temp Water Temp Dewpoint Dewpoint Depression Visibility Wind Speed Wind Dir Waves Ship Positions

Eagle Turin

Last reported at 2016-Jun-16 16:13 UTC. Time now 2016-Jun-30 23:12 UTC.
Position N 13°45' W 017°60'.
Warning: this ship's position is 14 days out of date.

Length 246 m; draft 8.8 m.

Type: Tanker. MMSI: 565770000.

Date/timePositionNaut miles runAvg speedWind from/ knotsBaromVisibWave heightAir tempDewpointWater temp
2016-Jun-16 16:13N 13°45' W 017°60'59 7.6
2016-Jun-16 08:21N 14°45' W 018°00'1113.3
2016-Jun-16 07:32N 14°55' W 018°00'1513.1
2016-Jun-16 06:22N 15°11' W 018°00'1113.3
2016-Jun-16 05:33N 15°22' W 018°00'1413.7
2016-Jun-16 04:32N 15°36' W 018°00'1413.9
2016-Jun-16 03:33N 15°49' W 017°60'  
2016-Jun-13 16:15N 28°15' W 015°05'6711.8
2016-Jun-13 10:33N 29°20' W 014°41'1312.6
2016-Jun-13 09:33N 29°32' W 014°38'1312.5
2016-Jun-13 08:33N 29°44' W 014°35'1413.5
2016-Jun-13 07:32N 29°58' W 014°32'1514.2
2016-Jun-13 06:30N 30°12' W 014°29'17514.3
2016-Jun-12 18:16N 33°03' W 013°45'1214.2
2016-Jun-12 17:26N 33°15' W 013°42'  
2016-Jun-09 18:19N 47°56' W 006°40'2212.4
2016-Jun-09 16:31N 48°16' W 006°25'1313.1
2016-Jun-09 15:33N 48°27' W 006°16'1413.7
2016-Jun-09 14:33N 48°39' W 006°05'1514.5
2016-Jun-09 13:33N 48°51' W 005°52'1514.9
2016-Jun-09 12:33N 48°60' W 005°35'1515.0
2016-Jun-09 11:33N 49°07' W 005°15'1211.5
2016-Jun-09 10:33N 49°12' W 004°59'1312.8
2016-Jun-09 09:32N 49°18' W 004°41'1312.9
2016-Jun-09 08:33N 49°25' W 004°24'1212.4
2016-Jun-09 07:33N 49°33' W 004°10'1312.8
2016-Jun-09 06:33N 49°38' W 003°52'1413.9
2016-Jun-09 05:33N 49°44' W 003°33'1515.0
2016-Jun-09 04:34N 49°52' W 003°13'1616.2
2016-Jun-09 03:34N 49°60' W 002°51'1616.0
2016-Jun-09 02:33N 50°04' W 002°27'1514.7
2016-Jun-09 01:33N 50°09' W 002°05'1312.8
2016-Jun-09 00:32N 50°12' W 001°45'1111.4
2016-Jun-08 23:34N 50°15' W 001°29'1110.5
2016-Jun-08 22:33N 50°18' W 001°13'1010.4
2016-Jun-08 21:33N 50°20' W 000°57'1212.0
2016-Jun-08 20:33N 50°24' W 000°39'1413.8
2016-Jun-08 19:33N 50°27' W 000°18'1515.1
2016-Jun-08 18:33N 50°31' E 000°05'1515.4
2016-Jun-08 17:33N 50°35' E 000°29'1514.8
2016-Jun-08 16:33N 50°42' E 000°49'1513.5
2016-Jun-08 15:26N 50°51' E 001°09'1111.8
2016-Jun-08 14:29N 50°58' E 001°22'1111.8
2016-Jun-08 13:34N 51°06' E 001°35'1312.9
2016-Jun-08 12:33N 51°16' E 001°48'1515.1
2016-Jun-08 11:33N 51°28' E 002°01'1616.1
2016-Jun-08 10:33N 51°40' E 002°18'1616.1
2016-Jun-08 09:33N 51°53' E 002°35'1515.0
2016-Jun-08 08:33N 52°04' E 002°50'1414.2
2016-Jun-08 07:34N 52°15' E 003°05'1313.3
2016-Jun-08 06:34N 52°26' E 003°17'1312.8
2016-Jun-08 05:34N 52°37' E 003°29'1212.5
2016-Jun-08 04:34N 52°46' E 003°42'1312.9
2016-Jun-08 03:33N 52°56' E 003°56'1414.2
2016-Jun-08 02:33N 53°05' E 004°14'1514.7
2016-Jun-08 01:34N 53°17' E 004°29'1414.0
2016-Jun-08 00:33N 53°29' E 004°40'1514.5
2016-Jun-07 23:33N 53°35' E 005°03'1313.4
2016-Jun-07 22:33N 53°39' E 005°24'1312.6
2016-Jun-07 21:33N 53°43' E 005°44'1212.5
2016-Jun-07 20:33N 53°47' E 006°04'1312.8
2016-Jun-07 19:33N 53°49' E 006°26'1414.0
2016-Jun-07 18:34N 53°54' E 006°48'1515.0
2016-Jun-07 17:34N 53°58' E 007°12'1211.6
2016-Jun-07 16:33N 54°05' E 007°29'0 0.2
2016-Jun-07 15:32N 54°05' E 007°28'0 0.0
2016-Jun-07 14:33N 54°05' E 007°28'0 0.1
2016-Jun-07 13:33N 54°05' E 007°28'0 0.1
2016-Jun-07 12:34N 54°05' E 007°28'0 0.0
2016-Jun-07 11:33N 54°05' E 007°28'0 0.0
2016-Jun-07 10:33N 54°05' E 007°29'0 0.0
2016-Jun-07 09:33N 54°05' E 007°29'0 0.0
2016-Jun-07 08:32N 54°05' E 007°29'0 0.2
2016-Jun-07 07:32N 54°05' E 007°28'0 0.0
2016-Jun-07 06:32N 54°05' E 007°28'0 0.0
2016-Jun-07 05:32N 54°05' E 007°28'0 0.0
2016-Jun-07 04:32N 54°05' E 007°28'0 0.0
2016-Jun-07 03:32N 54°05' E 007°28'0 0.1
2016-Jun-07 02:32N 54°05' E 007°28'0 0.2
2016-Jun-07 01:32N 54°05' E 007°28'0 0.0
2016-Jun-07 00:32N 54°05' E 007°29'0 0.0
2016-Jun-06 23:32N 54°05' E 007°29'0 0.0
2016-Jun-06 22:32N 54°05' E 007°29'0 0.0
2016-Jun-06 21:32N 54°05' E 007°29'0 0.0
2016-Jun-06 20:29N 54°05' E 007°29'0 0.2
2016-Jun-06 19:32N 54°05' E 007°28'0 0.1
2016-Jun-06 18:32N 54°05' E 007°28'0 0.1
2016-Jun-06 17:32N 54°05' E 007°28'0 0.0
2016-Jun-06 16:33N 54°05' E 007°28'  
Track history (hours):
 
Tides and Currents Weather Stations Pressure Air Temp Water Temp Dewpoint Dewpoint Depression Visibility Wind Speed Wind Dir Waves Ship Positions

Eagle Turin

Last reported at 2016-Jun-16 16:13 UTC. Time now 2016-Jun-30 23:12 UTC.
Position N 13°45' W 017°60'.
Warning: this ship's position is 14 days out of date.

Length 246 m; draft 8.8 m.

Type: Tanker. MMSI: 565770000.

Date/timePositionNaut miles runAvg speedWind from/ knotsBaromVisibWave heightAir tempDewpointWater temp
2016-Jun-16 16:13N 13°45' W 017°60'59 7.6
2016-Jun-16 08:21N 14°45' W 018°00'1113.3
2016-Jun-16 07:32N 14°55' W 018°00'1513.1
2016-Jun-16 06:22N 15°11' W 018°00'1113.3
2016-Jun-16 05:33N 15°22' W 018°00'1413.7
2016-Jun-16 04:32N 15°36' W 018°00'1413.9
2016-Jun-16 03:33N 15°49' W 017°60'  
2016-Jun-13 16:15N 28°15' W 015°05'6711.8
2016-Jun-13 10:33N 29°20' W 014°41'1312.6
2016-Jun-13 09:33N 29°32' W 014°38'1312.5
2016-Jun-13 08:33N 29°44' W 014°35'1413.5
2016-Jun-13 07:32N 29°58' W 014°32'1514.2
2016-Jun-13 06:30N 30°12' W 014°29'17514.3
2016-Jun-12 18:16N 33°03' W 013°45'1214.2
2016-Jun-12 17:26N 33°15' W 013°42'  
2016-Jun-09 18:19N 47°56' W 006°40'2212.4
2016-Jun-09 16:31N 48°16' W 006°25'1313.1
2016-Jun-09 15:33N 48°27' W 006°16'1413.7
2016-Jun-09 14:33N 48°39' W 006°05'1514.5
2016-Jun-09 13:33N 48°51' W 005°52'1514.9
2016-Jun-09 12:33N 48°60' W 005°35'1515.0
2016-Jun-09 11:33N 49°07' W 005°15'1211.5
2016-Jun-09 10:33N 49°12' W 004°59'1312.8
2016-Jun-09 09:32N 49°18' W 004°41'1312.9
2016-Jun-09 08:33N 49°25' W 004°24'1212.4
2016-Jun-09 07:33N 49°33' W 004°10'1312.8
2016-Jun-09 06:33N 49°38' W 003°52'1413.9
2016-Jun-09 05:33N 49°44' W 003°33'1515.0
2016-Jun-09 04:34N 49°52' W 003°13'1616.2
2016-Jun-09 03:34N 49°60' W 002°51'1616.0
2016-Jun-09 02:33N 50°04' W 002°27'1514.7
2016-Jun-09 01:33N 50°09' W 002°05'1312.8
2016-Jun-09 00:32N 50°12' W 001°45'1111.4
2016-Jun-08 23:34N 50°15' W 001°29'1110.5
2016-Jun-08 22:33N 50°18' W 001°13'1010.4
2016-Jun-08 21:33N 50°20' W 000°57'1212.0
2016-Jun-08 20:33N 50°24' W 000°39'1413.8
2016-Jun-08 19:33N 50°27' W 000°18'1515.1
2016-Jun-08 18:33N 50°31' E 000°05'1515.4
2016-Jun-08 17:33N 50°35' E 000°29'1514.8
2016-Jun-08 16:33N 50°42' E 000°49'1513.5
2016-Jun-08 15:26N 50°51' E 001°09'1111.8
2016-Jun-08 14:29N 50°58' E 001°22'1111.8
2016-Jun-08 13:34N 51°06' E 001°35'1312.9
2016-Jun-08 12:33N 51°16' E 001°48'1515.1
2016-Jun-08 11:33N 51°28' E 002°01'1616.1
2016-Jun-08 10:33N 51°40' E 002°18'1616.1
2016-Jun-08 09:33N 51°53' E 002°35'1515.0
2016-Jun-08 08:33N 52°04' E 002°50'1414.2
2016-Jun-08 07:34N 52°15' E 003°05'1313.3
2016-Jun-08 06:34N 52°26' E 003°17'1312.8
2016-Jun-08 05:34N 52°37' E 003°29'1212.5
2016-Jun-08 04:34N 52°46' E 003°42'1312.9
2016-Jun-08 03:33N 52°56' E 003°56'1414.2
2016-Jun-08 02:33N 53°05' E 004°14'1514.7
2016-Jun-08 01:34N 53°17' E 004°29'1414.0
2016-Jun-08 00:33N 53°29' E 004°40'1514.5
2016-Jun-07 23:33N 53°35' E 005°03'1313.4
2016-Jun-07 22:33N 53°39' E 005°24'1312.6
2016-Jun-07 21:33N 53°43' E 005°44'1212.5
2016-Jun-07 20:33N 53°47' E 006°04'1312.8
2016-Jun-07 19:33N 53°49' E 006°26'1414.0
2016-Jun-07 18:34N 53°54' E 006°48'1515.0
2016-Jun-07 17:34N 53°58' E 007°12'1211.6
2016-Jun-07 16:33N 54°05' E 007°29'0 0.2
2016-Jun-07 15:32N 54°05' E 007°28'0 0.0
2016-Jun-07 14:33N 54°05' E 007°28'0 0.1
2016-Jun-07 13:33N 54°05' E 007°28'0 0.1
2016-Jun-07 12:34N 54°05' E 007°28'0 0.0
2016-Jun-07 11:33N 54°05' E 007°28'0 0.0
2016-Jun-07 10:33N 54°05' E 007°29'0 0.0
2016-Jun-07 09:33N 54°05' E 007°29'0 0.0
2016-Jun-07 08:32N 54°05' E 007°29'0 0.2
2016-Jun-07 07:32N 54°05' E 007°28'0 0.0
2016-Jun-07 06:32N 54°05' E 007°28'0 0.0
2016-Jun-07 05:32N 54°05' E 007°28'0 0.0
2016-Jun-07 04:32N 54°05' E 007°28'0 0.0
2016-Jun-07 03:32N 54°05' E 007°28'0 0.1
2016-Jun-07 02:32N 54°05' E 007°28'0 0.2
2016-Jun-07 01:32N 54°05' E 007°28'0 0.0
2016-Jun-07 00:32N 54°05' E 007°29'0 0.0
2016-Jun-06 23:32N 54°05' E 007°29'0 0.0
2016-Jun-06 22:32N 54°05' E 007°29'0 0.0
2016-Jun-06 21:32N 54°05' E 007°29'0 0.0
2016-Jun-06 20:29N 54°05' E 007°29'0 0.2
2016-Jun-06 19:32N 54°05' E 007°28'0 0.1
2016-Jun-06 18:32N 54°05' E 007°28'0 0.1
2016-Jun-06 17:32N 54°05' E 007°28'0 0.0
2016-Jun-06 16:33N 54°05' E 007°28'  

Dump ship's entire track history